Time;durP1;ratioP1;P1;durP2;ratioP2;P2;SDS_P1;SDS_P2;PMS_P1;PMS_P2;Temp;Humidity;BMP_temperature;BMP_pressure;BME280_temperature;BME280_humidity;BME280_pressure;Samples;Min_cycle;Max_cycle;Signal;HPM_P1;HPM_P2
2022/05/15 00:01:24;;;;;;;20.15;12.60;;;;;;;17.26;77.70;99306.94;4961889;28;20041;-89
2022/05/15 00:03:50;;;;;;;19.52;13.57;;;;;;;17.28;77.82;99314.78;4959752;28;20416;-89
2022/05/15 00:06:15;;;;;;;19.42;13.00;;;;;;;17.14;78.16;99307.53;4959300;28;20033;-90
2022/05/15 00:08:41;;;;;;;17.67;12.60;;;;;;;17.08;78.39;99308.78;4943616;28;20039;-89
2022/05/15 00:11:07;;;;;;;18.23;12.30;;;;;;;17.03;78.41;99311.63;4959273;28;20030;-89
2022/05/15 00:13:33;;;;;;;19.50;12.20;;;;;;;17.00;78.12;99312.28;4959196;28;20038;-90
2022/05/15 00:15:58;;;;;;;20.65;12.60;;;;;;;16.97;78.13;99321.03;4959131;28;20408;-90
2022/05/15 00:18:24;;;;;;;15.70;12.07;;;;;;;17.08;78.02;99330.56;4943235;28;20090;-89
2022/05/15 00:20:50;;;;;;;19.73;12.93;;;;;;;16.95;77.82;99306.94;4958979;28;20030;-89
2022/05/15 00:23:15;;;;;;;26.20;14.20;;;;;;;16.91;78.53;99311.41;4959066;28;20031;-89
2022/05/15 00:25:41;;;;;;;16.38;11.73;;;;;;;16.90;78.34;99313.34;4957875;28;20038;-89
2022/05/15 00:28:07;;;;;;;18.17;12.23;;;;;;;16.86;78.49;99311.56;4942825;28;20039;-89
2022/05/15 00:30:33;;;;;;;13.93;11.43;;;;;;;16.92;77.84;99313.03;4942846;28;20027;-89
2022/05/15 00:32:59;;;;;;;18.15;12.13;;;;;;;16.93;77.94;99312.72;4942741;28;20053;-89
2022/05/15 00:35:24;;;;;;;13.65;11.63;;;;;;;16.84;78.31;99311.84;4974796;28;20027;-89
2022/05/15 00:37:50;;;;;;;14.50;10.32;;;;;;;16.89;78.25;99316.34;4958981;28;20038;-89
2022/05/15 00:40:16;;;;;;;20.02;10.10;;;;;;;16.82;78.40;99307.84;4942724;28;20042;-89
2022/05/15 00:42:42;;;;;;;14.23;9.57;;;;;;;16.87;76.85;99305.81;4991029;28;20381;-89
2022/05/15 00:45:07;;;;;;;14.65;9.82;;;;;;;16.99;76.30;99321.53;4974813;28;20033;-89
2022/05/15 00:47:33;;;;;;;14.70;9.85;;;;;;;17.04;76.82;99321.41;4974505;28;20114;-89
2022/05/15 00:49:59;;;;;;;15.00;11.05;;;;;;;17.11;77.32;99327.19;4974577;28;20039;-89
2022/05/15 00:52:27;;;;;;;18.13;12.10;;;;;;;16.96;77.60;99322.16;4958577;28;20122;-89
2022/05/15 00:54:59;;;;;;;20.50;11.65;;;;;;;16.86;77.91;99325.16;4958996;28;20033;-89
2022/05/15 00:57:34;;;;;;;19.98;12.23;;;;;;;16.73;77.70;99322.16;4958951;28;20050;-90
2022/05/15 01:00:09;;;;;;;17.45;11.90;;;;;;;16.74;78.24;99333.84;4959140;28;20038;-89
2022/05/15 01:02:38;;;;;;;21.55;13.18;;;;;;;16.66;78.21;99321.00;4958594;28;20515;-90
2022/05/15 01:05:04;;;;;;;18.88;12.30;;;;;;;16.56;77.91;99311.19;4958527;28;20026;-90
2022/05/15 01:07:29;;;;;;;20.90;11.93;;;;;;;16.50;78.26;99315.94;4957897;28;20018;-90
2022/05/15 01:09:55;;;;;;;17.02;11.52;;;;;;;16.62;77.71;99315.41;4958173;28;20405;-91
2022/05/15 01:12:21;;;;;;;16.20;12.23;;;;;;;16.63;78.07;99324.34;4974447;28;20118;-88
2022/05/15 01:14:46;;;;;;;22.90;11.15;;;;;;;16.64;78.51;99329.44;4942251;28;20023;-88
2022/05/15 01:17:12;;;;;;;14.45;10.75;;;;;;;16.54;78.04;99325.09;4942007;28;20023;-90
2022/05/15 01:19:39;;;;;;;14.95;10.63;;;;;;;16.49;78.12;99311.59;4958194;28;20042;-90
2022/05/15 01:22:04;;;;;;;17.23;10.48;;;;;;;16.49;78.08;99327.91;4957652;28;20054;-90
2022/05/15 01:24:30;;;;;;;21.10;11.90;;;;;;;16.40;78.33;99318.91;4957858;28;20038;-90
2022/05/15 01:26:56;;;;;;;20.48;11.20;;;;;;;16.40;77.40;99339.84;4957674;28;20133;-90
2022/05/15 01:29:32;;;;;;;13.48;10.18;;;;;;;16.22;77.12;99323.41;4957760;28;20038;-88
2022/05/15 01:31:57;;;;;;;20.00;11.23;;;;;;;16.17;77.15;99327.03;4942230;28;20477;-89
2022/05/15 01:34:23;;;;;;;16.67;11.43;;;;;;;16.16;76.88;99339.03;4957878;28;20065;-89
2022/05/15 01:36:49;;;;;;;21.13;10.55;;;;;;;16.21;76.83;99327.22;4941503;28;20038;-88
2022/05/15 01:39:14;;;;;;;18.10;10.63;;;;;;;16.23;77.06;99324.19;4957507;28;20026;-89
2022/05/15 01:41:40;;;;;;;13.38;10.38;;;;;;;16.31;77.00;99332.44;4957777;28;20034;-89
2022/05/15 01:44:05;;;;;;;14.75;9.90;;;;;;;16.42;76.86;99343.88;4941426;28;20030;-90
2022/05/15 01:46:31;;;;;;;14.80;10.10;;;;;;;16.27;76.49;99314.31;4973613;28;20058;-89
2022/05/15 01:48:57;;;;;;;16.30;10.98;;;;;;;16.35;77.00;99329.88;4957561;28;20031;-89
2022/05/15 01:51:22;;;;;;;15.30;10.40;;;;;;;16.21;78.02;99327.22;4941738;28;20053;-90
2022/05/15 01:53:48;;;;;;;15.48;10.30;;;;;;;16.22;77.54;99328.81;4957604;28;20035;-90
2022/05/15 01:56:13;;;;;;;14.18;9.90;;;;;;;16.23;77.28;99325.00;4941460;28;20027;-89
2022/05/15 01:58:39;;;;;;;15.82;9.85;;;;;;;16.15;77.34;99326.53;4973395;28;20035;-90
2022/05/15 02:01:05;;;;;;;15.30;10.65;;;;;;;16.35;76.82;99341.56;4973324;28;20034;-89
2022/05/15 02:03:30;;;;;;;16.13;10.55;;;;;;;16.26;77.58;99335.25;4957335;28;20027;-89
2022/05/15 02:05:58;;;;;;;14.25;10.35;;;;;;;16.22;77.45;99322.59;4957413;28;20485;-90
2022/05/15 02:08:24;;;;;;;15.10;10.00;;;;;;;16.07;77.48;99318.31;4957653;28;20114;-90
2022/05/15 02:10:49;;;;;;;15.95;10.25;;;;;;;16.07;78.21;99331.91;4957800;28;20035;-94
2022/05/15 02:13:15;;;;;;;16.00;9.52;;;;;;;16.07;77.40;99329.19;4941996;28;20030;-94
2022/05/15 02:15:41;;;;;;;17.48;10.13;;;;;;;15.91;78.12;99337.66;4958323;28;20030;-94
2022/05/15 02:18:06;;;;;;;20.33;10.95;;;;;;;15.80;78.50;99330.84;4942813;28;20044;-93
2022/05/15 02:20:32;;;;;;;16.70;9.85;;;;;;;15.82;78.04;99344.91;4958168;28;20026;-93
2022/05/15 02:22:57;;;;;;;15.90;9.70;;;;;;;15.81;77.33;99348.72;4957734;28;20113;-94
2022/05/15 02:25:23;;;;;;;13.73;8.95;;;;;;;15.83;76.50;99343.78;4974096;28;20481;-95
2022/05/15 02:27:49;;;;;;;15.63;9.07;;;;;;;15.85;76.39;99349.72;4973659;28;20094;-95
2022/05/15 02:30:15;;;;;;;16.88;9.73;;;;;;;15.76;77.08;99351.56;4958140;28;20085;-93
2022/05/15 02:32:40;;;;;;;17.08;10.18;;;;;;;15.67;77.21;99339.78;4958357;28;20038;-94
2022/05/15 02:35:06;;;;;;;17.00;10.15;;;;;;;15.73;77.65;99352.97;4942043;28;20027;-94
2022/05/15 02:37:32;;;;;;;13.85;10.18;;;;;;;15.73;77.88;99354.91;4942858;28;20033;-95
2022/05/15 02:39:58;;;;;;;15.30;9.85;;;;;;;15.73;77.46;99363.84;4957862;28;20472;-95
2022/05/15 02:42:27;;;;;;;13.57;9.43;;;;;;;15.66;76.83;99346.31;4958274;28;20453;-95
2022/05/15 02:44:52;;;;;;;12.38;8.95;;;;;;;15.61;77.05;99341.78;4956936;28;20033;-89
2022/05/15 02:47:18;;;;;;;15.27;8.90;;;;;;;15.73;76.54;99361.13;4956516;28;20026;-89
2022/05/15 02:52:27;;;;;;;16.85;9.95;;;;;;;15.63;77.47;99355.06;4973288;28;20408;-89
2022/05/15 02:54:53;;;;;;;17.33;10.02;;;;;;;15.68;77.76;99379.38;4956504;28;20027;-89
2022/05/15 02:57:18;;;;;;;21.55;10.00;;;;;;;15.54;77.25;99371.22;4972422;28;20034;-89
2022/05/15 02:59:44;;;;;;;14.00;9.30;;;;;;;15.50;77.94;99383.78;4940925;28;20022;-89
2022/05/15 03:02:09;;;;;;;13.38;8.88;;;;;;;15.53;77.28;99370.44;4972305;28;20105;-89
2022/05/15 03:04:36;;;;;;;14.10;9.13;;;;;;;15.54;77.63;99374.78;4972233;28;20031;-89
2022/05/15 03:07:04;;;;;;;12.35;8.30;;;;;;;15.46;77.39;99375.47;4972268;28;20034;-89
2022/05/15 03:09:29;;;;;;;9.95;7.97;;;;;;;15.33;77.25;99358.06;4972640;28;20480;-89
2022/05/15 03:11:55;;;;;;;14.18;7.88;;;;;;;15.40;77.49;99373.13;4972350;28;20037;-89
2022/05/15 03:14:20;;;;;;;12.45;7.85;;;;;;;15.39;77.51;99380.47;4956433;28;20027;-89
2022/05/15 03:16:46;;;;;;;12.43;9.00;;;;;;;15.39;77.08;99376.97;4972461;28;20034;-91
2022/05/15 03:19:11;;;;;;;10.38;7.38;;;;;;;15.44;76.23;99376.84;4956532;28;20034;-89
2022/05/15 03:21:38;;;;;;;13.07;8.95;;;;;;;15.45;76.73;99376.56;4972095;28;20093;-89
2022/05/15 03:24:08;;;;;;;10.07;8.48;;;;;;;15.50;76.55;99394.66;4972411;28;20424;-89
2022/05/15 03:26:35;;;;;;;12.00;8.43;;;;;;;15.35;76.50;99382.97;4956297;28;20452;-89
2022/05/15 03:29:01;;;;;;;15.30;8.23;;;;;;;15.39;76.52;99387.81;4956430;28;20472;-89
2022/05/15 03:31:27;;;;;;;13.18;8.43;;;;;;;15.54;76.37;99392.94;4972223;28;20102;-89
2022/05/15 03:33:53;;;;;;;13.32;8.35;;;;;;;15.52;76.97;99406.00;4972206;28;20075;-89
2022/05/15 03:36:18;;;;;;;14.32;9.18;;;;;;;15.53;76.86;99400.28;4972244;28;20055;-89
2022/05/15 03:38:46;;;;;;;13.43;8.45;;;;;;;15.61;76.57;99384.44;4972244;28;20501;-89
2022/05/15 03:41:11;;;;;;;14.05;8.70;;;;;;;15.59;76.76;99397.50;4957115;28;20043;-94
2022/05/15 03:43:37;;;;;;;12.38;8.40;;;;;;;15.69;76.70;99398.09;4957114;28;20033;-92
2022/05/15 03:46:03;;;;;;;28.02;10.02;;;;;;;15.62;77.19;99394.97;4957202;28;20038;-94
2022/05/15 03:48:29;;;;;;;16.27;8.98;;;;;;;15.54;76.36;99388.34;4957330;28;20492;-94
2022/05/15 03:50:54;;;;;;;11.32;8.68;;;;;;;15.55;76.41;99394.56;4957177;28;20066;-94
2022/05/15 03:53:20;;;;;;;14.15;8.88;;;;;;;15.66;76.30;99404.09;4973069;28;20030;-93
2022/05/15 03:55:45;;;;;;;10.43;8.40;;;;;;;15.60;76.59;99402.59;4972850;28;20027;-93
2022/05/15 03:58:11;;;;;;;15.35;8.63;;;;;;;15.60;76.71;99391.75;4956977;28;20122;-93
2022/05/15 04:00:36;;;;;;;19.83;9.40;;;;;;;15.64;76.54;99403.59;4975066;28;20026;-93
2022/05/15 04:03:02;;;;;;;16.42;8.40;;;;;;;15.74;76.55;99416.22;4976550;28;20038;-93
2022/05/15 04:05:31;;;;;;;13.25;8.77;;;;;;;15.68;76.60;99415.47;4960341;28;20030;-93
2022/05/15 04:07:57;;;;;;;13.02;8.45;;;;;;;15.64;76.17;99405.53;4961455;28;20031;-93
2022/05/15 04:10:23;;;;;;;14.38;8.68;;;;;;;15.63;75.75;99410.16;4976401;28;20034;-93
2022/05/15 04:12:48;;;;;;;15.77;8.85;;;;;;;15.55;75.52;99403.50;4960920;28;20027;-94
2022/05/15 04:15:14;;;;;;;16.67;8.88;;;;;;;15.65;75.38;99421.50;4960246;28;20429;-94
2022/05/15 04:17:41;;;;;;;12.70;8.75;;;;;;;15.66;76.47;99409.53;4960401;28;20022;-93
2022/05/15 04:20:07;;;;;;;19.17;8.35;;;;;;;15.79;74.98;99424.25;4960590;28;20117;-93
2022/05/15 04:22:32;;;;;;;19.17;8.77;;;;;;;15.94;75.43;99432.09;4976175;28;20058;-94
2022/05/15 04:24:58;;;;;;;11.93;8.05;;;;;;;15.88;75.17;99419.72;4960345;28;20054;-93
2022/05/15 04:27:24;;;;;;;13.73;7.47;;;;;;;15.97;74.68;99414.38;4959677;28;20034;-93
2022/05/15 04:29:50;;;;;;;14.50;8.38;;;;;;;16.01;75.10;99431.69;4960739;28;20041;-94
2022/05/15 04:32:16;;;;;;;18.27;10.48;;;;;;;16.04;74.56;99431.09;4960653;28;20027;-93
2022/05/15 04:34:42;;;;;;;16.73;9.90;;;;;;;16.06;74.82;99425.34;4959795;28;20041;-94
2022/05/15 04:37:07;;;;;;;17.83;10.85;;;;;;;16.08;74.19;99420.41;4959978;28;20025;-94
2022/05/15 04:39:34;;;;;;;13.90;10.13;;;;;;;16.24;73.84;99427.13;4944091;28;20531;-93
2022/05/15 04:42:00;;;;;;;19.08;11.05;;;;;;;16.44;73.48;99436.75;4960980;28;20037;-94
2022/05/15 04:44:26;;;;;;;24.40;10.98;;;;;;;16.51;72.75;99423.53;4959879;28;20031;-95
2022/05/15 04:46:52;;;;;;;18.27;12.25;;;;;;;16.63;72.93;99428.44;4959652;28;20030;-94
2022/05/15 04:49:17;;;;;;;24.27;11.98;;;;;;;16.91;70.91;99444.69;4944130;28;20402;-94
2022/05/15 04:51:43;;;;;;;15.45;11.65;;;;;;;17.03;68.96;99427.81;4959965;28;20519;-95
2022/05/15 04:54:08;;;;;;;15.23;10.02;;;;;;;17.13;68.00;99420.19;4943400;28;20026;-94
2022/05/15 04:56:34;;;;;;;18.58;9.52;;;;;;;17.15;68.44;99428.84;4959751;28;20015;-95
2022/05/15 04:58:59;;;;;;;16.00;7.45;;;;;;;17.23;68.38;99432.75;4976639;28;20027;-94
2022/05/15 05:01:25;;;;;;;17.23;7.22;;;;;;;17.44;67.32;99441.19;4975869;28;20026;-94
2022/05/15 05:03:54;;;;;;;15.48;7.07;;;;;;;17.53;66.29;99442.00;4975792;28;20023;-94
2022/05/15 05:06:20;;;;;;;15.15;9.02;;;;;;;17.63;64.94;99430.06;4965789;28;20027;-94
2022/05/15 05:08:45;;;;;;;15.48;8.13;;;;;;;17.81;64.20;99443.75;4960400;28;20027;-94
2022/05/15 05:11:11;;;;;;;17.02;8.32;;;;;;;17.89;64.21;99443.81;4960685;28;20034;-94
2022/05/15 05:13:36;;;;;;;13.70;5.88;;;;;;;17.82;64.82;99437.97;4959487;28;20457;-93
2022/05/15 05:16:02;;;;;;;9.77;5.50;;;;;;;17.82;66.32;99443.44;4959532;28;20031;-95
2022/05/15 05:18:27;;;;;;;14.40;6.13;;;;;;;17.81;67.99;99441.03;4960415;28;20031;-95
2022/05/15 05:20:53;;;;;;;11.35;6.82;;;;;;;17.91;67.78;99454.41;4975647;28;20062;-95
2022/05/15 05:23:19;;;;;;;8.90;6.45;;;;;;;17.83;67.83;99453.25;4959231;28;20040;-96
2022/05/15 05:25:44;;;;;;;12.95;7.60;;;;;;;17.98;65.81;99452.00;4959994;28;20038;-94
2022/05/15 05:28:10;;;;;;;13.88;7.97;;;;;;;18.03;65.26;99448.34;4959120;28;20098;-95
2022/05/15 05:30:37;;;;;;;11.60;7.70;;;;;;;18.12;66.23;99447.25;4975576;28;20051;-95
2022/05/15 05:33:03;;;;;;;13.15;7.97;;;;;;;18.17;65.79;99438.91;4975174;28;20027;-94
2022/05/15 05:35:29;;;;;;;19.75;8.40;;;;;;;18.24;67.87;99452.09;4959215;28;20030;-94
2022/05/15 05:37:54;;;;;;;16.73;7.30;;;;;;;18.33;66.75;99450.19;4958968;28;20542;-94
2022/05/15 05:40:20;;;;;;;11.43;6.93;;;;;;;18.48;65.12;99456.28;4959076;28;20050;-94
2022/05/15 05:42:45;;;;;;;15.48;7.50;;;;;;;18.41;64.89;99434.97;4960130;28;20026;-94
2022/05/15 05:45:13;;;;;;;9.65;6.20;;;;;;;18.52;64.40;99419.09;4975163;28;20025;-94
2022/05/15 05:47:39;;;;;;;9.40;5.72;;;;;;;18.69;64.35;99438.16;4958598;28;20022;-95
2022/05/15 05:50:08;;;;;;;16.80;6.30;;;;;;;18.87;64.18;99454.56;4958571;28;20023;-94
2022/05/15 05:52:38;;;;;;;14.85;7.63;;;;;;;18.83;63.95;99432.59;4959273;28;20026;-94
2022/05/15 05:55:05;;;;;;;22.10;8.25;;;;;;;18.99;63.85;99449.28;4974601;28;20488;-95
2022/05/15 05:57:30;;;;;;;19.52;10.10;;;;;;;19.03;61.14;99447.50;4974773;28;20101;-94
2022/05/15 05:59:56;;;;;;;12.23;7.78;;;;;;;19.20;61.86;99462.25;4958205;28;20027;-95
2022/05/15 06:02:22;;;;;;;13.80;9.13;;;;;;;19.27;59.53;99438.78;4957919;28;20049;-91
2022/05/15 06:04:50;;;;;;;19.02;8.68;;;;;;;19.32;60.45;99427.69;4957841;28;20105;-92
2022/05/15 06:07:20;;;;;;;13.90;7.93;;;;;;;19.37;62.64;99440.38;4958283;28;20030;-91
2022/05/15 06:09:47;;;;;;;9.25;6.65;;;;;;;19.55;61.53;99449.31;4957567;28;20112;-92
2022/05/15 06:12:14;;;;;;;9.68;6.30;;;;;;;19.69;59.89;99446.34;4973346;28;20023;-91
2022/05/15 06:14:42;;;;;;;9.77;7.28;;;;;;;19.81;58.99;99438.31;4957320;28;20066;-91
2022/05/15 06:17:08;;;;;;;19.65;7.97;;;;;;;19.81;58.27;99432.03;4957674;28;20027;-91
2022/05/15 06:19:34;;;;;;;20.63;9.25;;;;;;;19.96;58.21;99435.03;4958121;28;20022;-91
2022/05/15 06:21:59;;;;;;;13.02;7.47;;;;;;;20.02;57.84;99429.38;4973598;28;20078;-90
2022/05/15 06:24:27;;;;;;;15.77;8.32;;;;;;;20.13;58.88;99434.13;4956625;28;20042;-91
2022/05/15 06:26:54;;;;;;;16.15;8.75;;;;;;;20.11;57.86;99432.88;4957627;28;20492;-90
2022/05/15 06:29:19;;;;;;;15.82;7.30;;;;;;;20.23;56.63;99435.66;4973503;28;20030;-90
2022/05/15 06:31:46;;;;;;;11.68;5.20;;;;;;;20.48;54.00;99433.91;4973183;28;20026;-90
2022/05/15 06:34:13;;;;;;;8.07;3.63;;;;;;;20.71;52.00;99448.06;4957661;28;20066;-92
2022/05/15 06:36:39;;;;;;;6.60;2.95;;;;;;;20.81;49.13;99446.06;4957252;28;20026;-92
2022/05/15 06:39:05;;;;;;;7.55;3.15;;;;;;;20.87;49.51;99448.25;4941407;28;20031;-93
2022/05/15 06:41:30;;;;;;;7.68;2.90;;;;;;;21.00;50.62;99446.38;4957289;28;20551;-92
2022/05/15 06:43:56;;;;;;;8.40;2.80;;;;;;;21.14;48.88;99438.66;4956905;28;20030;-91
2022/05/15 06:46:24;;;;;;;7.55;3.22;;;;;;;21.25;48.02;99438.22;4972537;28;20030;-92
2022/05/15 06:48:49;;;;;;;6.40;2.80;;;;;;;21.34;46.56;99444.44;4957387;28;20035;-91
2022/05/15 06:51:16;;;;;;;7.53;2.58;;;;;;;21.53;46.09;99447.44;4957412;28;20488;-91
2022/05/15 06:53:45;;;;;;;4.72;2.60;;;;;;;21.48;45.73;99453.16;4973476;28;20427;-92
2022/05/15 06:58:55;;;;;;;5.28;2.63;;;;;;;21.56;45.59;99457.75;4973493;28;20033;-91
2022/05/15 07:01:21;;;;;;;14.00;3.60;;;;;;;21.66;47.48;99461.97;4974389;28;20396;-90
2022/05/15 07:03:46;;;;;;;14.73;3.05;;;;;;;21.84;46.38;99459.81;4973291;28;20034;-92
2022/05/15 07:06:12;;;;;;;7.75;2.75;;;;;;;21.94;45.75;99469.56;4973029;28;20030;-91
2022/05/15 07:08:38;;;;;;;6.10;2.78;;;;;;;21.92;46.99;99472.63;4956767;28;20063;-91
2022/05/15 07:11:04;;;;;;;9.68;3.08;;;;;;;21.87;46.38;99448.19;4957099;28;20027;-90
2022/05/15 07:13:29;;;;;;;6.80;2.90;;;;;;;21.95;45.47;99460.97;4973283;28;20046;-89
2022/05/15 07:15:55;;;;;;;9.20;2.78;;;;;;;21.99;46.62;99466.56;4957536;28;20027;-90
2022/05/15 07:18:23;;;;;;;3.63;2.45;;;;;;;22.09;46.87;99465.31;4957041;28;20042;-91
2022/05/15 07:20:50;;;;;;;7.65;2.97;;;;;;;22.09;45.82;99465.31;4973034;28;20030;-91
2022/05/15 07:23:15;;;;;;;4.93;2.88;;;;;;;22.18;46.76;99468.72;4973484;28;20058;-91
2022/05/15 07:25:41;;;;;;;8.32;3.30;;;;;;;22.25;47.56;99474.47;4973134;28;20138;-91
2022/05/15 07:28:06;;;;;;;4.47;2.72;;;;;;;22.26;46.56;99473.31;4957451;28;20062;-90
2022/05/15 07:30:32;;;;;;;4.40;2.78;;;;;;;22.29;46.34;99474.59;4972858;28;20033;-90
2022/05/15 07:32:58;;;;;;;5.55;2.83;;;;;;;22.37;46.15;99473.66;4956616;28;20034;-91
2022/05/15 07:35:23;;;;;;;4.40;2.75;;;;;;;22.46;46.25;99487.28;4958008;28;20027;-89
2022/05/15 07:37:49;;;;;;;5.70;3.00;;;;;;;22.33;46.01;99480.97;4976286;28;20428;-90
2022/05/15 07:40:14;;;;;;;8.35;3.30;;;;;;;22.34;46.29;99490.81;4960216;28;20023;-90
2022/05/15 07:42:41;;;;;;;4.88;3.15;;;;;;;22.43;46.13;99482.47;4976547;28;20137;-89
2022/05/15 07:45:08;;;;;;;9.50;3.72;;;;;;;22.62;46.11;99490.06;4976917;28;20027;-90
2022/05/15 07:47:33;;;;;;;5.80;3.47;;;;;;;22.69;46.61;99487.56;4976228;28;20521;-90
2022/05/15 07:49:59;;;;;;;6.55;3.60;;;;;;;22.88;46.74;99487.72;4977455;28;20026;-90
2022/05/15 07:52:24;;;;;;;3.97;3.33;;;;;;;22.90;46.71;99487.38;4960289;28;20089;-90
2022/05/15 07:54:50;;;;;;;6.40;3.22;;;;;;;22.91;46.82;99473.31;4976110;28;20405;-91
2022/05/15 07:57:15;;;;;;;10.65;3.80;;;;;;;23.08;46.94;99487.94;4977102;28;20054;-90
2022/05/15 07:59:41;;;;;;;7.85;3.80;;;;;;;23.17;47.07;99505.84;4976066;28;20587;-91
2022/05/15 08:02:06;;;;;;;5.85;4.00;;;;;;;23.06;47.51;99507.50;4960172;28;20077;-90
2022/05/15 08:08:00;;;;;;;12.02;4.40;;;;;;;22.81;47.63;99506.75;4975548;28;20023;-92
2022/05/15 08:10:07;;;;;;;8.60;4.05;;;;;;;22.88;49.29;99512.44;4962994;28;20042;-91
2022/05/15 08:12:34;;;;;;;6.72;4.10;;;;;;;22.82;48.18;99507.53;4976326;28;20030;-91
2022/05/15 08:15:00;;;;;;;10.82;4.50;;;;;;;22.85;48.85;99515.91;4960147;28;20157;-91
2022/05/15 08:17:26;;;;;;;7.78;4.53;;;;;;;22.66;49.61;99508.28;4959727;28;20019;-89
2022/05/15 08:25:20;;;;;;;6.28;5.10;;;;;;;22.57;51.52;99502.91;4962419;28;20034;-91
2022/05/15 08:27:45;;;;;;;9.13;6.03;;;;;;;22.76;52.53;99520.69;4958984;28;20027;-91
2022/05/15 08:30:11;;;;;;;14.73;6.57;;;;;;;22.80;53.68;99511.41;4959611;28;20503;-92
2022/05/15 08:32:37;;;;;;;10.88;6.70;;;;;;;23.06;53.94;99523.19;4975533;28;20177;-91
2022/05/15 08:35:03;;;;;;;9.00;6.20;;;;;;;23.12;53.12;99508.84;4975319;28;20026;-92
2022/05/15 08:37:29;;;;;;;7.32;6.63;;;;;;;23.23;52.41;99516.59;4959896;28;20030;-89
2022/05/15 08:39:55;;;;;;;9.15;6.95;;;;;;;23.32;52.00;99515.28;4975617;28;20026;-90
2022/05/15 08:42:50;;;;;;;9.55;6.85;;;;;;;23.31;53.49;99538.41;4975094;28;20034;-91
2022/05/15 08:45:17;;;;;;;7.88;6.22;;;;;;;23.34;51.83;99528.66;4959633;28;20033;-90
2022/05/15 08:47:44;;;;;;;11.52;6.88;;;;;;;23.15;52.94;99521.09;4974334;28;20386;-89
2022/05/15 08:50:11;;;;;;;11.38;7.25;;;;;;;23.06;54.30;99537.72;4960127;28;20093;-91
2022/05/15 08:52:47;;;;;;;8.02;7.05;;;;;;;22.87;54.57;99526.50;4977366;28;20033;-91
2022/05/15 08:55:21;;;;;;;8.95;7.25;;;;;;;22.98;53.97;99539.41;4976276;28;20401;-91
2022/05/15 08:57:54;;;;;;;9.27;7.82;;;;;;;23.06;54.09;99551.44;4959596;28;20029;-90
2022/05/15 09:00:27;;;;;;;12.13;8.15;;;;;;;23.09;54.74;99542.50;4958884;28;20396;-90
2022/05/15 09:02:52;;;;;;;9.30;7.55;;;;;;;23.07;53.93;99520.06;4959662;28;20502;-89
2022/05/15 09:05:18;;;;;;;12.15;7.70;;;;;;;23.06;55.22;99536.91;4959718;28;20037;-91
2022/05/15 09:07:57;;;;;;;11.52;8.23;;;;;;;23.08;54.93;99540.91;4958778;28;20029;-91
2022/05/15 09:10:28;;;;;;;12.35;7.80;;;;;;;22.96;54.87;99524.44;4974940;28;20106;-91
2022/05/15 09:13:05;;;;;;;10.73;7.95;;;;;;;22.90;55.09;99531.31;4975054;28;20031;-91
2022/05/15 09:15:31;;;;;;;10.18;7.88;;;;;;;22.86;55.05;99527.66;4958593;28;20038;-91
2022/05/15 09:18:00;;;;;;;12.02;8.25;;;;;;;23.01;55.14;99540.69;4974588;28;20019;-92
2022/05/15 09:20:26;;;;;;;15.48;7.28;;;;;;;23.09;54.52;99560.94;4975155;28;20034;-91
2022/05/15 09:23:02;;;;;;;14.52;8.20;;;;;;;23.03;54.28;99535.66;4974367;28;20054;-92
2022/05/15 09:25:32;;;;;;;9.73;7.85;;;;;;;23.02;53.42;99542.31;4974628;28;20029;-91
2022/05/15 09:28:02;;;;;;;11.88;8.18;;;;;;;23.08;53.89;99549.16;4958036;28;20085;-90
2022/05/15 09:30:53;;;;;;;10.50;8.15;;;;;;;23.23;53.42;99550.34;4974431;28;20054;-91
2022/05/15 09:33:31;;;;;;;8.40;7.30;;;;;;;23.37;53.06;99571.94;4977073;28;20022;-91
2022/05/15 09:36:19;;;;;;;10.38;7.07;;;;;;;23.16;53.17;99550.97;4974177;28;20445;-92
2022/05/15 09:38:45;;;;;;;12.10;7.85;;;;;;;23.24;53.65;99564.88;4974333;28;20022;-92
2022/05/15 09:44:25;;;;;;;11.55;7.63;;;;;;;23.36;53.87;99579.38;4975252;28;20566;-90
2022/05/15 09:47:10;;;;;;;10.60;7.65;;;;;;;23.33;53.47;99573.81;4959046;28;20031;-92
2022/05/15 09:49:35;;;;;;;11.25;7.78;;;;;;;23.13;53.67;99551.63;4975444;28;20030;-91
2022/05/15 09:52:07;;;;;;;10.32;7.25;;;;;;;23.32;51.76;99563.94;4958123;28;20030;-90
2022/05/15 09:54:37;;;;;;;;;;;;;;;23.53;51.35;99581.03;4959077;28;20034;-90
2022/05/15 09:57:13;;;;;;;10.98;6.78;;;;;;;23.48;50.55;99578.53;4990407;28;19914;-90
2022/05/15 09:59:38;;;;;;;9.80;6.57;;;;;;;23.64;49.90;99564.84;4973508;28;20027;-91
2022/05/15 10:02:04;;;;;;;13.73;6.38;;;;;;;23.77;49.49;99569.16;4974956;28;20405;-90
2022/05/15 10:04:32;;;;;;;9.82;5.93;;;;;;;23.91;49.14;99576.19;4957699;28;20109;-90
2022/05/15 10:07:04;;;;;;;7.22;5.53;;;;;;;23.83;48.57;99566.16;4973551;28;20124;-89
2022/05/15 10:09:31;;;;;;;9.32;5.82;;;;;;;23.87;48.75;99545.84;4957515;28;20353;-88
2022/05/15 10:12:06;;;;;;;7.65;5.68;;;;;;;24.12;47.77;99562.97;4973510;28;20113;-88
2022/05/15 10:14:51;;;;;;;6.07;5.05;;;;;;;24.17;47.47;99567.41;4973652;28;20027;-88
2022/05/15 10:17:16;;;;;;;9.65;5.63;;;;;;;23.87;47.61;99567.84;4957791;28;20165;-89
2022/05/15 10:19:48;;;;;;;9.98;6.13;;;;;;;24.03;47.97;99583.53;4973093;28;20133;-89
2022/05/15 10:22:15;;;;;;;;;;;;;;;23.98;48.32;99576.34;4973301;28;20055;-88
2022/05/15 10:24:43;;;;;;;10.50;6.47;;;;;;;23.85;48.95;99564.63;4972991;28;19972;-91
2022/05/15 10:27:29;;;;;;;10.48;6.13;;;;;;;24.13;48.29;99577.50;4972821;28;20034;-91
2022/05/15 10:29:58;;;;;;;13.45;6.07;;;;;;;24.23;47.91;99584.44;4957180;28;20121;-90
2022/05/15 10:32:38;;;;;;;10.88;5.82;;;;;;;24.25;47.24;99577.44;4973116;28;20014;-91
2022/05/15 10:35:05;;;;;;;14.35;6.00;;;;;;;24.05;47.77;99576.56;4956701;28;20085;-90
2022/05/15 10:38:01;;;;;;;7.50;5.82;;;;;;;23.98;48.00;99579.09;4956571;28;20022;-88
2022/05/15 10:40:36;;;;;;;8.68;6.13;;;;;;;23.88;48.21;99579.63;4972593;28;20031;-91
2022/05/15 10:43:33;;;;;;;9.05;5.97;;;;;;;23.92;48.42;99578.56;4956603;28;20444;-89
2022/05/15 10:46:06;;;;;;;8.15;6.25;;;;;;;23.98;48.41;99581.84;4972781;28;20018;-89
2022/05/15 10:48:56;;;;;;;9.65;5.90;;;;;;;23.96;48.94;99586.91;4956860;28;20027;-89
2022/05/15 10:51:33;;;;;;;9.50;6.05;;;;;;;23.86;48.67;99571.72;4972575;28;20452;-89
2022/05/15 10:59:56;;;;;;;10.40;6.60;;;;;;;23.94;48.96;99576.25;4973955;28;20050;-91
2022/05/15 11:02:52;;;;;;;7.65;6.70;;;;;;;23.94;49.46;99578.22;4973651;28;20484;-93
2022/05/15 11:05:31;;;;;;;11.00;6.85;;;;;;;24.08;49.08;99569.53;4972432;28;20030;-91
2022/05/15 11:08:25;;;;;;;7.60;6.47;;;;;;;24.09;48.78;99568.38;4956340;28;20176;-89
2022/05/15 11:11:00;;;;;;;10.73;6.28;;;;;;;24.09;48.63;99557.38;4955573;28;20034;-90
2022/05/15 11:13:39;;;;;;;8.38;6.13;;;;;;;23.91;47.86;99552.22;4941106;28;20088;-88
2022/05/15 11:16:18;;;;;;;11.13;6.50;;;;;;;23.89;48.92;99568.28;4972277;28;20504;-91
2022/05/15 11:19:14;;;;;;;10.00;5.93;;;;;;;23.87;49.13;99564.28;4972388;28;20114;-91
2022/05/15 11:21:46;;;;;;;10.70;6.40;;;;;;;23.55;49.60;99545.75;4972144;28;20054;-90
2022/05/15 11:24:35;;;;;;;8.70;6.15;;;;;;;23.67;48.89;99555.88;4972413;28;20023;-90
2022/05/15 11:27:27;;;;;;;7.03;6.38;;;;;;;23.47;50.28;99551.41;4967633;28;20050;-88
2022/05/15 11:29:54;;;;;;;10.43;6.07;;;;;;;23.43;50.77;99548.56;4956442;28;20034;-89
2022/05/15 11:32:38;;;;;;;12.18;6.60;;;;;;;23.37;50.26;99553.50;4972223;28;20097;-89
2022/05/15 11:35:17;;;;;;;11.95;7.28;;;;;;;23.45;50.29;99568.25;4956502;28;20030;-89
2022/05/15 11:37:51;;;;;;;14.75;7.50;;;;;;;23.15;51.71;99570.53;4971935;28;20480;-88
2022/05/15 11:40:39;;;;;;;9.05;7.85;;;;;;;23.07;51.87;99560.47;4972104;28;20612;-88
2022/05/15 11:43:26;;;;;;;11.18;7.45;;;;;;;23.11;51.77;99564.13;4956989;28;20106;-88
2022/05/15 11:45:55;;;;;;;11.90;7.80;;;;;;;22.93;52.67;99547.91;4972167;28;20023;-89
2022/05/15 11:48:22;;;;;;;9.40;7.40;;;;;;;23.06;52.36;99550.66;4972726;28;20027;-89
2022/05/15 11:50:58;;;;;;;14.20;8.43;;;;;;;23.33;52.34;99573.81;4972208;28;20038;-92
2022/05/15 11:53:28;;;;;;;10.38;7.90;;;;;;;23.19;52.60;99554.94;4972121;28;20028;-89
2022/05/15 11:55:54;;;;;;;14.05;8.40;;;;;;;23.43;52.18;99562.31;4972259;28;20035;-88